Time;durP1;ratioP1;P1;durP2;ratioP2;P2;SDS_P1;SDS_P2;PMS_P1;PMS_P2;Temp;Humidity;BMP_temperature;BMP_pressure;BME280_temperature;BME280_humidity;BME280_pressure;Samples;Min_cycle;Max_cycle;Signal;HPM_P1;HPM_P2
2023/12/05 00:00:49;;;;;;;37.17;17.97;;;-4.80;59.80;;;;;;8376123;28;20232;-68
2023/12/05 00:04:50;;;;;;;35.10;17.43;;;-4.80;30.90;;;;;;8375747;28;20266;-67
2023/12/05 00:08:51;;;;;;;32.63;18.27;;;-4.80;1.00;;;;;;8380787;28;20168;-67
2023/12/05 00:12:53;;;;;;;30.57;16.97;;;-4.90;99.90;;;;;;8374563;28;20185;-66
2023/12/05 00:16:54;;;;;;;36.57;18.50;;;-4.90;1.00;;;;;;8376071;28;20257;-66
2023/12/05 00:20:56;;;;;;;36.10;18.03;;;-4.80;1.00;;;;;;8374257;28;20243;-67
2023/12/05 00:24:56;;;;;;;35.40;19.03;;;-4.80;1.00;;;;;;8375380;28;20201;-66
2023/12/05 00:28:57;;;;;;;31.40;17.73;;;-4.80;1.00;;;;;;8376084;28;20295;-67
2023/12/05 00:32:58;;;;;;;33.83;18.60;;;-4.60;1.00;;;;;;8372208;28;20192;-67
2023/12/05 00:37:00;;;;;;;33.03;16.90;;;-4.50;1.00;;;;;;8374772;28;20366;-66
2023/12/05 00:41:01;;;;;;;36.10;18.30;;;-4.50;99.90;;;;;;8378768;28;20259;-67
2023/12/05 00:45:01;;;;;;;31.93;18.10;;;-4.50;1.00;;;;;;8373310;28;20255;-67
2023/12/05 00:49:03;;;;;;;31.33;15.77;;;-4.50;1.00;;;;;;8377765;28;20233;-68
2023/12/05 00:53:04;;;;;;;30.20;17.37;;;-4.50;1.00;;;;;;8375788;28;20220;-67
2023/12/05 00:57:05;;;;;;;33.47;17.43;;;-4.50;1.00;;;;;;8372591;28;20181;-63
2023/12/05 01:01:07;;;;;;;35.97;18.10;;;-4.40;1.00;;;;;;8368430;28;20268;-62
2023/12/05 01:05:09;;;;;;;28.60;16.30;;;-4.40;1.00;;;;;;8365898;28;20325;-62
2023/12/05 01:09:10;;;;;;;37.20;17.43;;;-4.40;1.00;;;;;;8371645;28;20181;-66
2023/12/05 01:13:11;;;;;;;34.93;18.07;;;-4.30;1.00;;;;;;8375955;28;20184;-68
2023/12/05 01:17:12;;;;;;;30.40;17.73;;;-4.30;1.00;;;;;;8373312;28;20442;-65
2023/12/05 01:21:12;;;;;;;33.57;16.90;;;-4.30;1.00;;;;;;8384597;28;20169;-68
2023/12/05 01:25:14;;;;;;;32.13;17.13;;;-4.30;99.90;;;;;;8379665;28;20216;-68
2023/12/05 01:29:15;;;;;;;32.43;17.67;;;-4.20;99.90;;;;;;8381036;28;20177;-68
2023/12/05 01:33:18;;;;;;;29.97;15.53;;;-4.20;99.90;;;;;;8380799;28;20199;-67
2023/12/05 01:37:19;;;;;;;33.47;17.67;;;-4.20;99.90;;;;;;8382972;28;20193;-67
2023/12/05 01:41:20;;;;;;;32.13;16.07;;;-4.10;99.90;;;;;;8379076;28;20231;-67
2023/12/05 01:45:20;;;;;;;36.00;17.43;;;-4.20;99.90;;;;;;8380120;28;20188;-68
2023/12/05 01:49:21;;;;;;;29.27;16.40;;;-4.20;99.90;;;;;;8377489;28;20177;-67
2023/12/05 01:53:23;;;;;;;31.43;17.73;;;-4.20;99.90;;;;;;8380723;28;20190;-68
2023/12/05 01:57:25;;;;;;;28.63;17.17;;;-4.20;99.90;;;;;;8379385;28;20269;-68
2023/12/05 02:01:26;;;;;;;27.03;15.60;;;-4.20;99.90;;;;;;8380258;28;20197;-67
2023/12/05 02:05:27;;;;;;;29.53;15.20;;;-4.20;99.90;;;;;;8378901;28;20223;-65
2023/12/05 02:09:27;;;;;;;27.73;15.50;;;-4.20;99.90;;;;;;8372125;28;20517;-68
2023/12/05 02:13:28;;;;;;;29.77;16.67;;;-4.20;99.90;;;;;;8377349;28;20188;-67
2023/12/05 02:17:54;;;;;;;24.40;14.93;;;-4.20;99.90;;;;;;8376127;28;20197;-63
2023/12/05 02:22:00;;;;;;;28.90;16.30;;;-4.20;99.90;;;;;;8366890;28;20208;-62
2023/12/05 02:26:19;;;;;;;33.30;16.77;;;-4.20;99.90;;;;;;8369031;28;20209;-61
2023/12/05 02:30:20;;;;;;;31.50;16.97;;;-4.20;99.90;;;;;;8375047;28;20323;-62
2023/12/05 02:34:21;;;;;;;29.23;16.23;;;-4.20;99.90;;;;;;8370952;28;20188;-63
2023/12/05 02:38:35;;;;;;;35.20;18.27;;;-4.10;99.90;;;;;;8370840;28;20215;-62
2023/12/05 02:42:37;;;;;;;31.07;17.47;;;-4.10;99.90;;;;;;8367926;28;20208;-62
2023/12/05 02:46:41;;;;;;;30.63;17.37;;;-4.10;99.90;;;;;;8371493;28;20263;-61
2023/12/05 02:50:41;;;;;;;30.03;16.90;;;-4.10;99.90;;;;;;8371173;28;20196;-61
2023/12/05 02:54:42;;;;;;;30.70;18.87;;;-4.10;99.90;;;;;;8375495;28;20232;-63
2023/12/05 02:58:43;;;;;;;26.57;15.57;;;-4.10;99.90;;;;;;8368740;28;20233;-61
2023/12/05 03:02:43;;;;;;;31.07;16.57;;;-4.20;99.90;;;;;;8371048;28;20548;-61
2023/12/05 03:06:44;;;;;;;26.57;16.23;;;-4.20;99.90;;;;;;8367852;28;20197;-63
2023/12/05 03:10:45;;;;;;;29.00;15.83;;;-4.20;99.90;;;;;;8367839;28;20192;-61
2023/12/05 03:14:46;;;;;;;27.20;15.83;;;-4.30;99.90;;;;;;8367186;28;20363;-63
2023/12/05 03:18:47;;;;;;;26.93;16.10;;;-4.30;99.90;;;;;;8367233;28;20189;-63
2023/12/05 03:22:48;;;;;;;26.33;15.63;;;-4.30;99.90;;;;;;8370002;28;20209;-62
2023/12/05 03:26:49;;;;;;;25.13;15.67;;;-4.30;99.90;;;;;;8368403;28;20181;-62
2023/12/05 03:30:50;;;;;;;28.10;16.70;;;-4.30;99.90;;;;;;8375280;28;20220;-68
2023/12/05 03:34:50;;;;;;;30.77;16.63;;;-4.40;99.90;;;;;;8377249;28;20219;-67
2023/12/05 03:38:51;;;;;;;30.67;15.33;;;-4.40;99.90;;;;;;8368487;28;20190;-68
2023/12/05 03:42:52;;;;;;;27.13;14.13;;;-4.40;99.90;;;;;;8372759;28;20517;-66
2023/12/05 03:46:53;;;;;;;27.60;15.43;;;-4.40;99.90;;;;;;8375393;28;20182;-68
2023/12/05 03:50:53;;;;;;;30.57;15.07;;;-4.50;99.90;;;;;;8372313;28;20307;-68
2023/12/05 03:54:55;;;;;;;29.17;15.83;;;-4.50;99.90;;;;;;8365457;28;20186;-65
2023/12/05 03:58:56;;;;;;;28.43;15.03;;;-4.60;99.90;;;;;;8367783;28;20185;-67
2023/12/05 04:02:57;;;;;;;25.50;15.40;;;-4.70;99.90;;;;;;8371899;28;20251;-67
2023/12/05 04:06:57;;;;;;;30.93;15.77;;;-4.80;99.90;;;;;;8373992;28;20185;-67
2023/12/05 04:10:58;;;;;;;30.93;16.83;;;-4.90;99.90;;;;;;8374240;28;20203;-67
2023/12/05 04:14:59;;;;;;;28.17;15.57;;;-5.00;99.90;;;;;;8377998;28;20192;-66
2023/12/05 04:19:01;;;;;;;38.47;19.07;;;-5.10;1.00;;;;;;8376636;28;20219;-67
2023/12/05 04:23:02;;;;;;;32.50;17.53;;;-5.10;1.00;;;;;;8373458;28;20340;-68
2023/12/05 04:27:03;;;;;;;28.93;15.50;;;-5.20;1.00;;;;;;8371769;28;20181;-67
2023/12/05 04:31:04;;;;;;;28.77;16.13;;;-5.20;1.00;;;;;;8376454;28;20184;-64
2023/12/05 04:35:05;;;;;;;28.97;15.60;;;-5.30;1.00;;;;;;8372023;28;20459;-67
2023/12/05 04:39:07;;;;;;;23.70;14.30;;;-5.30;1.00;;;;;;8367498;28;20176;-62
2023/12/05 04:43:08;;;;;;;29.70;15.87;;;-5.40;1.00;;;;;;8368693;28;20213;-61
2023/12/05 04:47:09;;;;;;;26.87;16.03;;;-5.40;1.00;;;;;;8369922;28;20223;-62
2023/12/05 04:51:10;;;;;;;25.33;14.03;;;-5.40;1.00;;;;;;8372282;28;20185;-61
2023/12/05 04:55:11;;;;;;;26.43;13.60;;;-5.50;1.00;;;;;;8373519;28;20211;-62
2023/12/05 04:59:12;;;;;;;27.00;14.97;;;-5.60;1.00;;;;;;8371537;28;20451;-61
2023/12/05 05:03:13;;;;;;;29.60;15.67;;;-5.60;1.00;;;;;;8371381;28;20836;-61
2023/12/05 05:07:14;;;;;;;29.00;16.47;;;-5.70;1.00;;;;;;8375885;28;20247;-63
2023/12/05 05:11:15;;;;;;;35.83;19.67;;;-5.80;1.00;;;;;;8372512;28;20189;-61
2023/12/05 05:15:15;;;;;;;90.17;37.00;;;-5.80;69.20;;;;;;8372409;28;20283;-63
2023/12/05 05:19:16;;;;;;;80.50;37.17;;;-5.60;99.90;;;;;;8375454;28;20216;-62
2023/12/05 05:23:17;;;;;;;81.13;37.93;;;-5.50;1.00;;;;;;8371969;28;20209;-61
2023/12/05 05:27:18;;;;;;;42.43;21.90;;;-5.40;1.00;;;;;;8373465;28;20697;-61
2023/12/05 05:31:19;;;;;;;37.30;19.97;;;-5.40;99.90;;;;;;8367567;28;20185;-63
2023/12/05 05:35:19;;;;;;;30.50;17.67;;;-5.50;99.90;;;;;;8363250;28;20189;-61
2023/12/05 05:39:20;;;;;;;25.23;14.80;;;-5.50;99.90;;;;;;8374745;28;20259;-62
2023/12/05 05:43:21;;;;;;;26.70;15.33;;;-5.50;99.90;;;;;;8372272;28;20425;-62
2023/12/05 05:47:24;;;;;;;26.13;14.60;;;-5.40;99.90;;;;;;8371708;28;20206;-68
2023/12/05 05:51:25;;;;;;;27.83;16.23;;;-5.30;99.90;;;;;;8382012;28;20181;-67
2023/12/05 05:55:27;;;;;;;26.70;15.17;;;-5.30;99.90;;;;;;8387667;28;20188;-67
2023/12/05 05:59:28;;;;;;;31.00;15.77;;;-5.20;99.90;;;;;;8382319;28;20268;-67
2023/12/05 06:03:31;;;;;;;67.23;32.60;;;-5.10;99.90;;;;;;8382552;28;20231;-66
2023/12/05 06:07:31;;;;;;;62.60;29.13;;;-5.00;99.90;;;;;;8380655;28;20273;-67
2023/12/05 06:11:33;;;;;;;35.73;19.00;;;-5.00;99.90;;;;;;8381519;28;20185;-67
2023/12/05 06:15:35;;;;;;;31.83;16.63;;;-4.90;99.90;;;;;;8377591;28;20181;-64
2023/12/05 06:19:38;;;;;;;30.20;17.60;;;-4.90;99.90;;;;;;8379753;28;20194;-67
2023/12/05 06:23:39;;;;;;;28.77;16.70;;;-4.90;99.90;;;;;;8380524;28;20202;-67
2023/12/05 06:27:39;;;;;;;26.17;14.53;;;-4.90;99.90;;;;;;8379073;28;20350;-67
2023/12/05 06:31:40;;;;;;;31.83;15.93;;;-4.90;99.90;;;;;;8381424;28;20567;-67
2023/12/05 06:35:43;;;;;;;50.83;23.03;;;-4.90;99.90;;;;;;8378735;28;20206;-67
2023/12/05 06:39:46;;;;;;;77.23;30.30;;;-4.80;99.90;;;;;;8385934;28;20259;-68
2023/12/05 06:43:48;;;;;;;57.27;31.60;;;-4.80;99.90;;;;;;8380033;28;20287;-66
2023/12/05 06:48:01;;;;;;;62.40;30.50;;;-4.70;99.90;;;;;;8375481;28;20205;-67
2023/12/05 06:52:05;;;;;;;50.10;24.33;;;-4.60;99.90;;;;;;8382901;28;20192;-67
2023/12/05 06:56:06;;;;;;;62.33;37.23;;;-4.60;99.90;;;;;;8376067;28;20181;-68
2023/12/05 07:00:08;;;;;;;64.07;39.47;;;-4.50;99.90;;;;;;8375382;28;20237;-69
2023/12/05 07:04:09;;;;;;;70.13;32.93;;;-4.50;80.50;;;;;;8364328;28;20209;-69
2023/12/05 07:08:11;;;;;;;47.57;25.23;;;-4.50;66.90;;;;;;8367928;28;20195;-69
2023/12/05 07:12:12;;;;;;;42.43;23.00;;;-4.40;50.50;;;;;;8369481;28;20193;-69
2023/12/05 07:16:13;;;;;;;64.90;33.33;;;-4.40;29.40;;;;;;8362102;28;20192;-69
2023/12/05 07:20:14;;;;;;;71.87;33.73;;;-4.30;8.50;;;;;;8367917;28;20184;-69
2023/12/05 07:24:17;;;;;;;53.43;31.63;;;-4.30;1.00;;;;;;8370369;28;20201;-69
2023/12/05 07:28:18;;;;;;;54.53;24.80;;;-4.30;1.00;;;;;;8368012;28;20198;-69
2023/12/05 07:32:19;;;;;;;49.60;25.30;;;-4.20;1.00;;;;;;8358930;28;20262;-69
2023/12/05 07:36:21;;;;;;;42.37;21.47;;;-4.00;1.00;;;;;;8369380;28;20181;-69
2023/12/05 07:40:21;;;;;;;38.87;22.80;;;-3.80;99.90;;;;;;8363918;28;20189;-69
2023/12/05 07:44:22;;;;;;;48.30;23.90;;;-3.60;99.90;;;;;;8366212;28;20209;-69
2023/12/05 07:48:23;;;;;;;41.93;20.47;;;-3.40;99.90;;;;;;8367274;28;20171;-70
2023/12/05 07:52:25;;;;;;;38.03;21.03;;;-3.20;99.90;;;;;;8366026;28;20182;-69
2023/12/05 07:56:28;;;;;;;36.73;19.97;;;-3.00;99.90;;;;;;8371555;28;20198;-69
2023/12/05 08:00:28;;;;;;;34.30;20.27;;;-2.90;99.90;;;;;;8368134;28;20274;-69
2023/12/05 08:04:29;;;;;;;42.47;25.40;;;-2.80;97.80;;;;;;8368022;28;20218;-70
2023/12/05 08:08:30;;;;;;;47.77;25.23;;;-2.70;89.00;;;;;;8367711;28;20194;-70
2023/12/05 08:12:31;;;;;;;52.70;25.93;;;-2.50;82.30;;;;;;8364750;28;20183;-69
2023/12/05 08:16:32;;;;;;;39.30;21.07;;;-2.40;59.00;;;;;;8369763;28;20200;-69
2023/12/05 08:20:33;;;;;;;34.03;20.37;;;-2.30;60.90;;;;;;8360331;28;20188;-71
2023/12/05 08:24:33;;;;;;;35.60;19.17;;;-2.10;39.20;;;;;;8363706;28;20203;-70
2023/12/05 08:28:36;;;;;;;43.83;23.97;;;-2.10;27.70;;;;;;8371041;28;20522;-70
2023/12/05 08:32:36;;;;;;;49.57;27.97;;;-1.90;21.70;;;;;;8374097;28;20188;-70
2023/12/05 08:36:37;;;;;;;51.20;26.77;;;-1.70;16.30;;;;;;8376481;28;20188;-69
2023/12/05 08:40:38;;;;;;;53.23;28.07;;;-1.60;4.70;;;;;;8378426;28;20200;-70
2023/12/05 08:44:41;;;;;;;44.23;25.30;;;-1.40;1.00;;;;;;8377122;28;20318;-70
2023/12/05 08:48:42;;;;;;;37.37;20.97;;;-1.40;1.00;;;;;;8377245;28;20260;-70
2023/12/05 08:52:44;;;;;;;37.40;22.70;;;-1.50;1.00;;;;;;8375832;28;20193;-70
2023/12/05 08:56:46;;;;;;;65.93;35.43;;;-1.50;1.00;;;;;;8370015;28;20201;-70
2023/12/05 09:00:47;;;;;;;70.97;29.00;;;-1.40;1.00;;;;;;8376810;28;20205;-70
2023/12/05 09:04:48;;;;;;;33.97;20.60;;;-1.30;1.00;;;;;;8375765;28;20216;-70
2023/12/05 09:08:49;;;;;;;31.70;19.97;;;-1.10;1.00;;;;;;8374407;28;20493;-69
2023/12/05 09:12:50;;;;;;;37.57;19.93;;;-1.00;1.00;;;;;;8371000;28;20189;-70
2023/12/05 09:16:51;;;;;;;30.07;17.97;;;-0.80;1.00;;;;;;8374197;28;20174;-67
2023/12/05 09:20:52;;;;;;;45.53;26.70;;;-0.50;1.00;;;;;;8375502;28;20177;-71
2023/12/05 09:24:53;;;;;;;34.30;19.57;;;-0.20;1.00;;;;;;8373264;28;20205;-70
2023/12/05 09:28:54;;;;;;;28.50;17.57;;;0.00;1.00;;;;;;8369925;28;20591;-67
2023/12/05 09:32:55;;;;;;;32.00;18.63;;;0.20;1.00;;;;;;8377075;28;20192;-66
2023/12/05 09:37:02;;;;;;;28.87;17.37;;;0.50;1.00;;;;;;8375137;28;20216;-66
2023/12/05 09:41:04;;;;;;;27.83;19.13;;;0.80;1.00;;;;;;8383652;28;20190;-66
2023/12/05 09:45:12;;;;;;;28.33;19.10;;;1.00;1.00;;;;;;8386899;28;20292;-66
2023/12/05 09:49:14;;;;;;;72.53;42.00;;;1.10;1.00;;;;;;8385791;28;20181;-66
2023/12/05 09:53:15;;;;;;;33.80;21.27;;;1.20;1.00;;;;;;8385644;28;20457;-65
2023/12/05 09:57:19;;;;;;;40.17;23.03;;;1.40;1.00;;;;;;8378885;28;20189;-66
2023/12/05 10:01:22;;;;;;;32.77;20.37;;;1.40;1.00;;;;;;8380523;28;20213;-65
2023/12/05 10:05:25;;;;;;;24.93;16.83;;;1.50;1.00;;;;;;8377644;28;20573;-66
2023/12/05 10:09:32;;;;;;;26.13;17.43;;;1.50;1.00;;;;;;8379781;28;20188;-65
2023/12/05 10:13:36;;;;;;;28.83;18.13;;;1.40;1.00;;;;;;8371048;28;20496;-66
2023/12/05 10:17:38;;;;;;;28.80;20.10;;;1.30;1.00;;;;;;8377176;28;20187;-65
2023/12/05 10:21:44;;;;;;;36.13;24.57;;;1.30;1.00;;;;;;8374818;28;20182;-65
2023/12/05 10:25:45;;;;;;;30.73;19.43;;;1.40;1.00;;;;;;8370671;28;20268;-65
2023/12/05 10:29:46;;;;;;;28.70;17.97;;;1.40;1.00;;;;;;8367656;28;20187;-66
2023/12/05 10:33:51;;;;;;;28.03;18.30;;;1.30;1.00;;;;;;8370138;28;20212;-65
2023/12/05 10:37:54;;;;;;;30.17;18.47;;;1.00;1.00;;;;;;8371761;28;20173;-65
2023/12/05 10:41:55;;;;;;;28.07;17.40;;;0.70;1.00;;;;;;8370239;28;20205;-66
2023/12/05 10:45:57;;;;;;;25.77;17.80;;;0.60;1.00;;;;;;8371066;28;20185;-66
2023/12/05 10:49:59;;;;;;;26.03;19.57;;;0.40;1.00;;;;;;8371719;28;20200;-66
2023/12/05 10:54:02;;;;;;;33.83;21.40;;;0.40;1.00;;;;;;8374300;28;20189;-66
2023/12/05 10:58:04;;;;;;;33.13;21.47;;;0.40;1.00;;;;;;8373889;28;20177;-66
2023/12/05 11:02:24;;;;;;;33.20;19.97;;;0.50;1.00;;;;;;8374353;28;20255;-65
2023/12/05 11:06:27;;;;;;;32.07;20.00;;;0.70;1.00;;;;;;8362742;28;20182;-65
2023/12/05 11:10:29;;;;;;;29.07;18.77;;;1.00;1.00;;;;;;8371361;28;20220;-65
2023/12/05 11:14:33;;;;;;;29.53;18.93;;;1.20;1.00;;;;;;8374101;28;20250;-65
2023/12/05 11:18:43;;;;;;;33.00;19.50;;;1.70;1.00;;;;;;8370909;28;20209;-66
2023/12/05 11:23:22;;;;;;;29.70;18.10;;;1.70;1.00;;;;;;8366742;28;20202;-66
2023/12/05 11:27:51;;;;;;;29.00;19.43;;;1.90;1.00;;;;;;8365428;28;20194;-66
2023/12/05 11:32:30;;;;;;;28.97;19.47;;;1.90;1.00;;;;;;8369315;28;20184;-66
2023/12/05 11:36:45;;;;;;;31.57;18.93;;;1.70;1.00;;;;;;8348691;28;20189;-65
2023/12/05 11:41:18;;;;;;;25.80;17.30;;;1.50;1.00;;;;;;8370137;28;20397;-66
2023/12/05 11:45:22;;;;;;;25.77;17.93;;;1.40;1.00;;;;;;8369667;28;20209;-66
2023/12/05 11:49:28;;;;;;;30.87;19.00;;;1.30;1.00;;;;;;8386552;28;20516;-67
2023/12/05 11:53:29;;;;;;;34.80;20.63;;;1.30;1.00;;;;;;8363383;28;20618;-67
2023/12/05 11:57:33;;;;;;;32.00;20.77;;;1.20;1.00;;;;;;8371032;28;20284;-67
2023/12/05 12:01:35;;;;;;;32.90;20.87;;;1.10;1.00;;;;;;8369329;28;20225;-67
2023/12/05 12:05:39;;;;;;;36.83;22.03;;;1.10;1.00;;;;;;8368072;28;20205;-67
2023/12/05 12:09:41;;;;;;;38.47;23.87;;;1.10;1.00;;;;;;8373865;28;20188;-67
2023/12/05 12:13:43;;;;;;;105.27;47.27;;;1.20;1.00;;;;;;8373687;28;20511;-67
2023/12/05 12:17:45;;;;;;;145.77;66.17;;;1.30;1.00;;;;;;8369186;28;20217;-67
2023/12/05 12:21:45;;;;;;;108.30;57.30;;;1.40;1.00;;;;;;8367669;28;20509;-66
2023/12/05 12:25:55;;;;;;;82.33;40.67;;;1.40;1.00;;;;;;8372611;28;20529;-67
2023/12/05 12:29:57;;;;;;;52.90;27.00;;;1.40;1.00;;;;;;8367611;28;20249;-67
2023/12/05 12:33:58;;;;;;;93.83;40.77;;;1.50;1.00;;;;;;8372008;28;20181;-67
2023/12/05 12:38:00;;;;;;;122.17;62.40;;;1.40;1.00;;;;;;8369334;28;20574;-67
2023/12/05 12:42:01;;;;;;;53.13;36.73;;;1.40;1.00;;;;;;8369080;28;20236;-67
2023/12/05 12:46:01;;;;;;;86.07;42.93;;;1.40;1.00;;;;;;8364650;28;20510;-66
2023/12/05 12:50:04;;;;;;;66.93;31.93;;;1.50;1.00;;;;;;8366369;28;20725;-67
2023/12/05 12:54:05;;;;;;;52.40;28.37;;;1.50;1.00;;;;;;8370468;28;20181;-66
2023/12/05 12:58:06;;;;;;;57.80;35.50;;;1.50;1.00;;;;;;8369476;28;20197;-67
2023/12/05 13:02:08;;;;;;;44.47;26.10;;;1.30;1.00;;;;;;8369390;28;20209;-66
2023/12/05 13:06:08;;;;;;;42.93;24.73;;;1.30;1.00;;;;;;8372375;28;20250;-66
2023/12/05 13:10:09;;;;;;;39.90;25.27;;;1.30;1.00;;;;;;8374324;28;20181;-66
2023/12/05 13:14:12;;;;;;;39.97;23.40;;;1.20;1.00;;;;;;8373195;28;20190;-67
2023/12/05 13:18:13;;;;;;;29.67;19.90;;;1.10;1.00;;;;;;8369975;28;20190;-65
2023/12/05 13:22:14;;;;;;;36.33;24.33;;;1.00;1.00;;;;;;8372732;28;20332;-66
2023/12/05 13:26:16;;;;;;;33.97;21.73;;;1.00;1.00;;;;;;8379636;28;20178;-66
2023/12/05 13:30:19;;;;;;;38.80;24.57;;;0.90;1.00;;;;;;8380439;28;20181;-65
2023/12/05 13:34:19;;;;;;;39.83;23.73;;;0.80;1.00;;;;;;8379724;28;20177;-66
2023/12/05 13:38:21;;;;;;;34.47;20.47;;;0.70;1.00;;;;;;8378286;28;20181;-66
2023/12/05 13:42:23;;;;;;;33.50;20.70;;;0.70;1.00;;;;;;8380243;28;20231;-67
2023/12/05 13:46:25;;;;;;;34.57;21.87;;;0.70;1.00;;;;;;8376332;28;20223;-67
2023/12/05 13:50:28;;;;;;;31.00;20.23;;;0.70;1.00;;;;;;8380760;28;20178;-66
2023/12/05 13:54:29;;;;;;;31.80;20.43;;;0.60;1.00;;;;;;8381822;28;20185;-67
2023/12/05 13:58:30;;;;;;;31.30;20.70;;;0.50;1.00;;;;;;8374029;28;20207;-67
2023/12/05 14:02:33;;;;;;;36.57;21.33;;;0.40;1.00;;;;;;8377595;28;20212;-65
2023/12/05 14:06:34;;;;;;;37.50;20.97;;;0.20;1.00;;;;;;8380558;28;20169;-66
2023/12/05 14:10:37;;;;;;;38.10;21.80;;;0.10;1.00;;;;;;8379485;28;20185;-66
2023/12/05 14:14:42;;;;;;;35.63;22.50;;;-0.10;1.00;;;;;;8381168;28;20185;-66
2023/12/05 14:18:43;;;;;;;33.90;21.03;;;-0.20;1.00;;;;;;8378504;28;20182;-66
2023/12/05 14:22:44;;;;;;;38.07;23.13;;;-0.20;1.00;;;;;;8379286;28;20231;-66
2023/12/05 14:26:47;;;;;;;42.53;26.60;;;-0.30;1.00;;;;;;8375546;28;20173;-65
2023/12/05 14:30:52;;;;;;;37.47;24.40;;;-0.30;1.00;;;;;;8381105;28;20509;-66
2023/12/05 14:34:54;;;;;;;37.87;23.23;;;-0.40;1.00;;;;;;8375075;28;20181;-67
2023/12/05 14:38:56;;;;;;;35.17;21.83;;;-0.40;1.00;;;;;;8382667;28;20193;-66
2023/12/05 14:42:59;;;;;;;33.77;21.90;;;-0.40;1.00;;;;;;8379307;28;20197;-67
2023/12/05 14:47:02;;;;;;;37.57;21.50;;;-0.50;1.00;;;;;;8380942;28;20185;-66
2023/12/05 14:51:05;;;;;;;51.23;26.53;;;-0.60;1.00;;;;;;8376659;28;20289;-66
2023/12/05 14:55:06;;;;;;;137.70;54.07;;;-0.60;1.00;;;;;;8378292;28;20197;-65
2023/12/05 14:59:11;;;;;;;78.37;38.60;;;-0.60;1.00;;;;;;8380197;28;20383;-66
2023/12/05 15:03:12;;;;;;;71.43;36.27;;;-0.60;1.00;;;;;;8379971;28;20205;-67
2023/12/05 15:07:14;;;;;;;108.57;41.87;;;-0.70;3.90;;;;;;8376947;28;20193;-67
2023/12/05 15:11:15;;;;;;;92.73;38.23;;;-0.70;7.10;;;;;;8372592;28;20216;-67
2023/12/05 15:15:15;;;;;;;81.03;38.50;;;-0.70;7.90;;;;;;8373709;28;20487;-63
2023/12/05 15:19:17;;;;;;;75.60;37.07;;;-0.70;13.30;;;;;;8367013;28;20283;-63
2023/12/05 15:23:19;;;;;;;70.00;33.93;;;-0.70;17.30;;;;;;8368049;28;20205;-62
2023/12/05 15:27:21;;;;;;;64.70;32.03;;;-0.70;19.70;;;;;;8363591;28;20212;-62
2023/12/05 15:31:21;;;;;;;58.73;28.73;;;-0.70;25.90;;;;;;8371714;28;20208;-62
2023/12/05 15:35:23;;;;;;;75.10;33.53;;;-0.80;33.20;;;;;;8367428;28;20192;-63
2023/12/05 15:39:24;;;;;;;75.60;34.97;;;-0.80;40.00;;;;;;8370395;28;20204;-63
2023/12/05 15:43:28;;;;;;;59.03;30.47;;;-0.80;56.00;;;;;;8366600;28;20237;-62
2023/12/05 15:47:31;;;;;;;51.77;27.53;;;-0.90;55.50;;;;;;8365840;28;20189;-63
2023/12/05 15:51:35;;;;;;;67.93;33.40;;;-0.90;59.40;;;;;;8370118;28;20465;-61
2023/12/05 15:55:37;;;;;;;80.27;40.33;;;-0.90;75.90;;;;;;8368370;28;20205;-63
2023/12/05 15:59:38;;;;;;;84.63;41.40;;;-0.90;87.80;;;;;;8364231;28;20316;-63
2023/12/05 16:03:39;;;;;;;80.00;37.13;;;-0.90;90.10;;;;;;8369857;28;20258;-62
2023/12/05 16:07:40;;;;;;;90.43;48.73;;;-0.90;96.90;;;;;;8371803;28;20180;-62
2023/12/05 16:11:41;;;;;;;72.80;41.53;;;-0.90;91.10;;;;;;8370146;28;20212;-63
2023/12/05 16:15:41;;;;;;;88.40;44.33;;;-0.80;92.80;;;;;;8367827;28;20188;-62
2023/12/05 16:19:43;;;;;;;88.00;48.70;;;-0.80;97.80;;;;;;8373399;28;20189;-62
2023/12/05 16:23:43;;;;;;;48.33;28.10;;;-0.90;99.90;;;;;;8357440;28;20244;-62
2023/12/05 16:27:44;;;;;;;58.30;30.10;;;-0.80;99.90;;;;;;8360292;28;20173;-63
2023/12/05 16:31:46;;;;;;;55.83;30.43;;;-0.80;99.90;;;;;;8367649;28;20178;-62
2023/12/05 16:35:47;;;;;;;44.13;27.63;;;-0.80;99.90;;;;;;8359175;28;20188;-63
2023/12/05 16:39:48;;;;;;;37.53;23.50;;;-0.80;99.90;;;;;;8370365;28;20192;-64
2023/12/05 16:43:49;;;;;;;37.83;22.77;;;-0.90;99.90;;;;;;8368914;28;20217;-63
2023/12/05 16:47:57;;;;;;;39.43;22.80;;;-0.90;99.90;;;;;;8374218;28;20203;-63
2023/12/05 16:51:58;;;;;;;40.17;21.57;;;-0.90;99.90;;;;;;8375204;28;20295;-62
2023/12/05 16:55:59;;;;;;;44.90;24.67;;;-0.90;99.90;;;;;;8374908;28;20185;-63
2023/12/05 17:00:00;;;;;;;52.13;30.97;;;-1.00;99.90;;;;;;8374636;28;20251;-62
2023/12/05 17:04:02;;;;;;;138.20;61.67;;;-1.00;99.90;;;;;;8376855;28;20245;-63
2023/12/05 17:08:03;;;;;;;151.27;67.83;;;-1.00;99.90;;;;;;8377574;28;20226;-63
2023/12/05 17:12:04;;;;;;;94.17;43.63;;;-1.00;99.90;;;;;;8374800;28;20205;-64
2023/12/05 17:16:06;;;;;;;113.60;49.00;;;-1.10;99.90;;;;;;8375073;28;20703;-62
2023/12/05 17:20:08;;;;;;;108.77;49.80;;;-1.10;99.90;;;;;;8383587;28;20190;-62
2023/12/05 17:24:10;;;;;;;72.43;38.37;;;-1.10;99.90;;;;;;8377715;28;20294;-62
2023/12/05 17:28:10;;;;;;;55.77;29.97;;;-1.20;99.90;;;;;;8375543;28;20209;-62
2023/12/05 17:32:13;;;;;;;53.23;27.97;;;-1.40;99.90;;;;;;8374584;28;20284;-63
2023/12/05 17:36:14;;;;;;;92.67;50.47;;;-1.60;99.90;;;;;;8374898;28;20291;-63
2023/12/05 17:40:15;;;;;;;73.90;37.40;;;-1.70;99.90;;;;;;8372298;28;20257;-62
2023/12/05 17:44:16;;;;;;;72.13;37.13;;;-1.90;99.90;;;;;;8374206;28;20204;-62
2023/12/05 17:48:17;;;;;;;72.57;35.53;;;-2.00;99.90;;;;;;8365203;28;20188;-61
2023/12/05 17:52:18;;;;;;;67.00;32.80;;;-2.00;99.90;;;;;;8369507;28;20189;-62
2023/12/05 17:56:18;;;;;;;59.23;29.70;;;-2.00;99.90;;;;;;8369711;28;20222;-61
2023/12/05 18:00:20;;;;;;;42.77;23.90;;;-2.00;99.90;;;;;;8372221;28;20205;-63
2023/12/05 18:04:21;;;;;;;38.47;23.30;;;-2.00;99.90;;;;;;8370318;28;20585;-63
2023/12/05 18:08:23;;;;;;;34.80;20.17;;;-2.00;99.90;;;;;;8374839;28;20228;-62
2023/12/05 18:12:24;;;;;;;51.30;27.80;;;-2.00;99.90;;;;;;8375103;28;20209;-63
2023/12/05 18:16:26;;;;;;;45.17;24.17;;;-2.10;99.90;;;;;;8374952;28;20227;-62
2023/12/05 18:20:27;;;;;;;37.87;21.70;;;-2.20;99.90;;;;;;8367325;28;20187;-63
2023/12/05 18:24:28;;;;;;;36.47;21.60;;;-2.40;99.90;;;;;;8368167;28;20843;-62
2023/12/05 18:28:29;;;;;;;35.97;18.93;;;-2.50;99.90;;;;;;8374394;28;20198;-63
2023/12/05 18:32:30;;;;;;;39.20;22.27;;;-2.70;99.90;;;;;;8375937;28;20189;-61
2023/12/05 18:36:32;;;;;;;129.97;59.07;;;-2.60;99.90;;;;;;8368515;28;20183;-63
2023/12/05 18:40:33;;;;;;;84.83;42.40;;;-2.50;99.90;;;;;;8372263;28;20259;-64
2023/12/05 18:44:34;;;;;;;103.87;46.83;;;-2.40;99.90;;;;;;8365594;28;20435;-62
2023/12/05 18:48:35;;;;;;;72.17;35.43;;;-2.30;99.90;;;;;;8372342;28;20183;-64
2023/12/05 18:52:40;;;;;;;55.97;28.53;;;-2.20;99.90;;;;;;8371057;28;20261;-66
2023/12/05 18:56:43;;;;;;;50.47;28.97;;;-2.10;99.90;;;;;;8371428;28;20282;-65
2023/12/05 19:00:46;;;;;;;46.83;25.33;;;-2.10;99.90;;;;;;8361462;28;20215;-65
2023/12/05 19:04:48;;;;;;;138.03;51.53;;;-2.10;99.90;;;;;;8369831;28;20212;-66
2023/12/05 19:08:48;;;;;;;221.93;74.53;;;-2.10;99.90;;;;;;8373017;28;20199;-66
2023/12/05 19:12:49;;;;;;;158.20;58.40;;;-2.20;99.90;;;;;;8370362;28;20253;-66
2023/12/05 19:16:50;;;;;;;151.83;56.77;;;-2.40;99.90;;;;;;8364851;28;20195;-66
2023/12/05 19:20:51;;;;;;;83.10;37.53;;;-2.50;99.90;;;;;;8369757;28;20189;-67
2023/12/05 19:24:53;;;;;;;65.90;31.37;;;-2.50;99.90;;;;;;8371395;28;20288;-66
2023/12/05 19:28:54;;;;;;;47.30;25.10;;;-2.40;99.90;;;;;;8361810;28;20447;-66
2023/12/05 19:32:57;;;;;;;157.80;56.93;;;-2.30;99.90;;;;;;8368989;28;20194;-66
2023/12/05 19:37:01;;;;;;;102.87;45.50;;;-2.20;99.90;;;;;;8367503;28;20282;-67
2023/12/05 19:41:05;;;;;;;87.90;43.30;;;-2.00;99.90;;;;;;8371775;28;20191;-66
2023/12/05 19:45:06;;;;;;;84.23;38.90;;;-2.00;99.90;;;;;;8366652;28;20209;-66
2023/12/05 19:49:07;;;;;;;58.23;31.87;;;-1.90;99.90;;;;;;8370602;28;20217;-66
2023/12/05 19:53:07;;;;;;;129.67;55.87;;;-1.80;99.90;;;;;;8369441;28;20534;-66
2023/12/05 19:57:08;;;;;;;141.27;66.23;;;-1.70;99.90;;;;;;8369802;28;20189;-66
2023/12/05 20:01:10;;;;;;;122.20;58.07;;;-1.70;99.90;;;;;;8361690;28;20213;-68
2023/12/05 20:05:11;;;;;;;102.60;48.43;;;-1.70;99.90;;;;;;8368227;28;20201;-67
2023/12/05 20:09:11;;;;;;;75.57;37.93;;;-1.60;99.90;;;;;;8373161;28;20582;-69
2023/12/05 20:13:15;;;;;;;69.93;36.63;;;-1.60;99.90;;;;;;8373133;28;20180;-67
2023/12/05 20:17:16;;;;;;;56.40;31.37;;;-1.50;99.90;;;;;;8368997;28;20185;-66
2023/12/05 20:21:16;;;;;;;74.17;38.47;;;-1.60;99.90;;;;;;8367339;28;20301;-67
2023/12/05 20:25:17;;;;;;;64.07;34.37;;;-1.60;99.90;;;;;;8370472;28;20212;-67
2023/12/05 20:29:19;;;;;;;52.43;29.53;;;-1.70;99.90;;;;;;8366915;28;20180;-67
2023/12/05 20:33:20;;;;;;;55.53;29.53;;;-1.90;99.90;;;;;;8366393;28;20234;-67
2023/12/05 20:37:21;;;;;;;50.70;29.40;;;-2.10;99.90;;;;;;8374099;28;20523;-67